Date,TemperatureHighF,TemperatureAvgF,TemperatureLowF,DewpointHighF,DewpointAvgF,DewpointLowF,HumidityHigh,HumidityAvg,HumidityLow,PressureMaxIn,PressureMinIn,WindSpeedMaxMPH,WindSpeedAvgMPH,GustSpeedMaxMPH,PrecipitationSumIn
2013-3-1,39.4,36.0,29.5,32.7,28.6,25.9,91,75,64,29.67,29.52,8,3,0,0.00
2013-3-2,41.0,35.3,28.0,30.0,25.8,22.1,80,68,59,29.67,29.61,7,4,0,0.00
2013-3-3,40.8,33.7,28.9,30.4,25.9,23.0,82,73,65,29.64,29.55,6,3,0,0.00
2013-3-4,37.9,32.3,28.2,25.3,22.6,19.7,76,67,55,29.72,29.56,10,6,0,0.00
2013-3-5,44.1,36.0,28.8,31.1,25.6,20.6,85,66,53,30.05,29.73,7,3,0,0.00
2013-3-6,37.2,34.1,30.6,33.1,30.6,28.3,92,87,75,30.11,30.03,14,4,0,0.11
2013-3-7,34.3,31.2,29.1,29.0,27.1,24.7,91,85,71,30.09,29.99,7,4,0,0.08
2013-3-8,41.2,33.5,28.6,30.6,26.9,21.9,91,78,58,30.15,29.94,5,3,0,0.27
2013-3-9,53.2,36.9,25.2,27.2,22.0,13.2,87,58,20,30.34,30.13,6,2,0,0.02
2013-3-10,46.4,33.8,20.1,30.7,25.9,16.9,89,74,53,30.40,30.29,7,1,0,0.00
2013-3-11,51.4,40.3,29.7,37.4,32.0,26.6,90,74,50,30.31,30.11,7,2,0,0.00
2013-3-12,55.0,47.2,37.4,50.6,44.8,34.5,95,91,80,30.12,29.66,10,2,0,0.51
2013-3-13,50.4,41.7,30.6,47.3,29.7,18.1,95,65,37,29.74,29.66,8,3,0,0.00
2013-3-14,36.1,29.5,20.8,22.3,14.7,6.5,73,54,42,29.79,29.65,11,4,0,0.00
2013-3-15,41.4,28.3,16.9,25.2,10.9,0.9,78,50,20,29.82,29.58,10,4,0,0.00
2013-3-16,37.8,31.2,24.8,23.7,13.2,8.9,70,48,32,29.85,29.64,6,3,0,0.00
2013-3-17,35.2,27.0,17.2,13.7,7.3,-1.4,76,46,22,30.29,29.85,10,4,0,0.00
2013-3-18,39.4,27.0,12.2,23.7,3.5,-5.0,84,40,16,30.44,30.21,5,2,0,0.00
2013-3-19,34.2,30.0,24.8,31.0,27.2,21.8,91,89,84,30.21,29.61,5,0,0,0.27
2013-3-20,40.5,29.7,23.2,27.9,22.2,18.1,89,74,56,29.76,29.66,0,0,0,0.52
2013-3-21,40.6,29.5,16.5,24.0,18.0,12.5,86,65,37,29.77,29.55,4,1,0,0.09
2013-3-22,40.3,31.6,24.8,22.2,18.7,15.1,87,60,40,29.69,29.56,8,3,0,0.00
2013-3-23,41.0,32.9,22.3,22.3,19.1,15.5,78,58,42,29.74,29.59,13,5,0,0.00
2013-3-24,44.6,37.0,30.7,24.6,22.5,20.1,68,56,43,29.76,29.68,10,4,0,0.00
2013-3-25,44.8,35.7,26.4,30.9,25.9,20.2,78,68,57,29.73,29.48,10,3,0,0.00
2013-3-26,48.7,39.3,33.3,28.3,23.9,17.8,72,56,30,29.73,29.50,7,3,0,0.00
2013-3-27,52.5,41.4,27.0,31.0,24.1,18.5,71,52,33,29.83,29.69,10,4,0,0.00
2013-3-28,50.4,41.6,34.5,33.8,31.3,29.4,87,68,47,29.97,29.83,7,3,0,0.00
2013-3-29,57.6,44.1,33.1,34.8,31.2,27.3,80,62,36,30.00,29.92,6,2,0,0.00
2013-3-30,55.9,44.0,32.2,32.2,21.4,11.3,79,46,19,30.06,29.95,8,3,0,0.00
2013-3-31,61.2,43.5,23.4,38.1,23.7,16.9,82,51,19,30.07,29.70,9,2,0,0.03